Time;durP1;ratioP1;P1;durP2;ratioP2;P2;SDS_P1;SDS_P2;PMS_P1;PMS_P2;Temp;Humidity;BMP_temperature;BMP_pressure;BME280_temperature;BME280_humidity;BME280_pressure;Samples;Min_cycle;Max_cycle;Signal;HPM_P1;HPM_P2
2023/01/19 00:00:11;;;;;;;23.47;15.00;;;;;;;9.64;100.00;100120.38;2107531;28;20173;-58
2023/01/19 00:01:12;;;;;;;21.03;13.77;;;;;;;9.70;100.00;100115.09;2107296;28;20192;-58
2023/01/19 00:02:12;;;;;;;24.50;14.40;;;;;;;9.71;100.00;100122.97;2107461;28;20483;-59
2023/01/19 00:03:16;;;;;;;23.53;15.30;;;;;;;9.74;100.00;100118.53;2111264;28;20223;-58
2023/01/19 00:04:17;;;;;;;22.97;14.40;;;;;;;9.25;100.00;100053.53;2115766;28;20184;-57
2023/01/19 00:05:17;;;;;;;26.83;14.77;;;;;;;9.05;100.00;100006.72;2114672;28;20420;-58
2023/01/19 00:06:18;;;;;;;24.23;13.57;;;;;;;9.74;100.00;100124.84;2107343;28;20662;-58
2023/01/19 00:07:18;;;;;;;19.93;14.03;;;;;;;9.73;100.00;100114.22;2107138;28;20238;-57
2023/01/19 00:08:19;;;;;;;24.60;13.93;;;;;;;9.11;100.00;100013.25;2106808;28;20193;-58
2023/01/19 00:09:21;;;;;;;20.07;13.70;;;;;;;9.90;100.00;100124.75;2101906;28;20190;-58
2023/01/19 00:10:21;;;;;;;16.40;10.47;;;;;;;9.90;100.00;100116.47;2107253;28;20210;-58
2023/01/19 00:11:21;;;;;;;15.63;9.70;;;;;;;9.83;100.00;100111.16;2107413;28;20424;-58
2023/01/19 00:12:22;;;;;;;13.60;7.63;;;;;;;9.81;100.00;100118.34;2106991;28;20187;-58
2023/01/19 00:13:22;;;;;;;12.10;7.30;;;;;;;9.67;100.00;100094.63;2106447;28;20187;-58
2023/01/19 00:14:23;;;;;;;11.33;7.20;;;;;;;9.67;100.00;100102.91;2105876;28;20191;-58
2023/01/19 00:15:23;;;;;;;16.50;9.20;;;;;;;9.82;100.00;100128.97;2099644;28;20190;-58
2023/01/19 00:16:24;;;;;;;19.47;10.90;;;;;;;9.86;100.00;100126.88;2103775;28;20251;-58
2023/01/19 00:17:24;;;;;;;18.87;9.50;;;;;;;9.89;100.00;100120.44;2103076;28;20191;-57
2023/01/19 00:18:24;;;;;;;14.03;7.70;;;;;;;9.86;100.00;100115.81;2098547;28;20246;-58
2023/01/19 00:19:25;;;;;;;13.13;6.87;;;;;;;9.83;100.00;100115.91;2099531;28;20206;-57
2023/01/19 00:20:25;;;;;;;15.47;6.83;;;;;;;9.73;100.00;100117.75;2107233;28;20173;-58
2023/01/19 00:21:26;;;;;;;10.07;6.80;;;;;;;9.75;100.00;100114.56;2107292;28;20260;-58
2023/01/19 00:22:26;;;;;;;16.57;8.70;;;;;;;9.77;100.00;100118.44;2099835;28;20214;-58
2023/01/19 00:23:27;;;;;;;11.13;7.60;;;;;;;9.68;100.00;100104.47;2098854;28;20235;-58
2023/01/19 00:24:27;;;;;;;11.10;7.20;;;;;;;9.75;100.00;100118.13;2103021;28;20639;-58
2023/01/19 00:25:28;;;;;;;13.80;7.87;;;;;;;9.73;100.00;100119.78;2107040;28;20313;-58
2023/01/19 00:26:28;;;;;;;12.03;8.00;;;;;;;9.82;100.00;100130.94;2105464;28;20257;-57
2023/01/19 00:27:33;;;;;;;12.83;7.80;;;;;;;9.86;100.00;100131.63;2098880;28;20257;-58
2023/01/19 00:28:34;;;;;;;14.10;8.37;;;;;;;9.84;100.00;100123.75;2098861;28;20621;-58
2023/01/19 00:29:34;;;;;;;11.90;7.63;;;;;;;9.72;100.00;100120.97;2091389;28;20426;-58
2023/01/19 00:30:34;;;;;;;13.77;8.50;;;;;;;9.75;100.00;100125.63;2097522;28;20325;-58
2023/01/19 00:31:36;;;;;;;12.77;8.17;;;;;;;9.79;100.00;100131.84;2106410;28;20201;-58
2023/01/19 00:32:36;;;;;;;14.07;8.23;;;;;;;9.82;100.00;100144.78;2107182;28;20219;-57
2023/01/19 00:33:36;;;;;;;13.30;7.40;;;;;;;9.81;100.00;100146.78;2105022;28;20424;-58
2023/01/19 00:34:38;;;;;;;14.07;8.53;;;;;;;9.70;100.00;100137.22;2102592;28;20193;-58
2023/01/19 00:35:41;;;;;;;14.77;7.77;;;;;;;9.87;100.00;100158.88;2107182;28;20180;-58
2023/01/19 00:36:41;;;;;;;10.67;7.37;;;;;;;9.46;100.00;100086.91;2107097;28;20420;-58
2023/01/19 00:37:44;;;;;;;14.77;7.57;;;;;;;9.91;100.00;100148.47;2106582;28;20446;-59
2023/01/19 00:38:45;;;;;;;12.30;7.60;;;;;;;9.92;100.00;100141.72;2106834;28;20174;-58
2023/01/19 00:39:45;;;;;;;14.20;7.90;;;;;;;9.94;100.00;100138.53;2107098;28;20426;-57
2023/01/19 00:40:47;;;;;;;12.47;7.43;;;;;;;9.93;100.00;100145.25;2104368;28;20218;-58
2023/01/19 00:43:07;;;;;;;17.30;8.27;;;;;;;9.94;100.00;100157.91;2107095;28;20173;-57
2023/01/19 00:44:07;;;;;;;11.80;7.73;;;;;;;9.30;100.00;100048.25;2106805;28;20699;-58
2023/01/19 00:45:10;;;;;;;14.40;8.27;;;;;;;9.97;100.00;100165.31;2106902;28;20183;-58
2023/01/19 00:46:11;;;;;;;13.00;7.50;;;;;;;10.00;100.00;100158.91;2106975;28;20180;-57
2023/01/19 00:47:11;;;;;;;13.20;7.90;;;;;;;9.99;100.00;100151.81;2100063;28;20472;-57
2023/01/19 00:48:11;;;;;;;14.53;7.63;;;;;;;9.96;100.00;100149.91;2102408;28;20179;-59
2023/01/19 00:49:12;;;;;;;17.10;8.60;;;;;;;9.95;100.00;100154.66;2106866;28;20653;-58
2023/01/19 00:50:15;;;;;;;14.23;7.97;;;;;;;9.92;100.00;100146.47;2107017;28;20270;-58
2023/01/19 00:51:16;;;;;;;13.33;7.60;;;;;;;9.88;100.00;100159.63;2104572;28;20219;-58
2023/01/19 00:52:16;;;;;;;13.73;8.23;;;;;;;9.48;100.00;100101.06;2099416;28;20410;-58
2023/01/19 00:53:16;;;;;;;16.70;8.20;;;;;;;9.87;100.00;100163.63;2106841;28;20277;-57
2023/01/19 00:54:17;;;;;;;16.00;7.33;;;;;;;9.89;100.00;100153.66;2106771;28;20196;-58
2023/01/19 00:55:18;;;;;;;12.57;7.53;;;;;;;9.35;100.00;100074.59;2106740;28;20208;-58
2023/01/19 00:56:18;;;;;;;16.07;6.83;;;;;;;9.79;100.00;100160.28;2102021;28;20223;-58
2023/01/19 00:57:18;;;;;;;14.40;7.10;;;;;;;9.79;100.00;100151.97;2102084;28;20189;-57
2023/01/19 00:58:19;;;;;;;13.53;6.70;;;;;;;9.76;100.00;100139.03;2106930;28;20203;-58
2023/01/19 00:59:19;;;;;;;11.93;6.40;;;;;;;9.70;100.00;100138.03;2105839;28;20540;-57
2023/01/19 01:00:21;;;;;;;14.70;8.47;;;;;;;9.63;100.00;100140.97;2104877;28;20659;-58
2023/01/19 01:01:21;;;;;;;15.15;7.95;;;;;;;9.55;100.00;100136.06;2106980;28;20177;-58
2023/01/19 01:02:22;;;;;;;13.80;8.00;;;;;;;9.62;100.00;100169.84;2106558;28;20211;-58
2023/01/19 01:03:26;;;;;;;13.63;7.77;;;;;;;9.63;100.00;100179.69;2100852;28;20201;-57
2023/01/19 01:04:27;;;;;;;17.07;7.50;;;;;;;9.68;100.00;100161.81;2098579;28;20241;-58
2023/01/19 01:05:27;;;;;;;12.00;6.73;;;;;;;9.71;100.00;100158.94;2105454;28;20535;-58
2023/01/19 01:06:27;;;;;;;13.43;7.10;;;;;;;9.63;100.00;100149.25;2106589;28;20185;-58
2023/01/19 01:07:29;;;;;;;12.03;6.70;;;;;;;9.65;100.00;100166.22;2105971;28;20209;-58
2023/01/19 01:08:29;;;;;;;13.50;7.10;;;;;;;9.60;100.00;100157.66;2106558;28;20658;-58
2023/01/19 01:09:30;;;;;;;15.53;7.90;;;;;;;9.60;100.00;100164.00;2098784;28;20806;-58
2023/01/19 01:10:30;;;;;;;13.93;7.53;;;;;;;9.58;100.00;100171.94;2104441;28;20250;-58
2023/01/19 01:11:31;;;;;;;11.37;7.07;;;;;;;9.60;100.00;100179.78;2107021;28;20185;-58
2023/01/19 01:12:31;;;;;;;12.73;6.93;;;;;;;9.58;100.00;100168.41;2106806;28;20210;-58
2023/01/19 01:13:32;;;;;;;11.07;6.87;;;;;;;9.54;100.00;100168.47;2106542;28;20262;-58
2023/01/19 01:14:32;;;;;;;15.07;7.63;;;;;;;9.58;100.00;100151.81;2106904;28;20179;-58
2023/01/19 01:15:33;;;;;;;14.50;7.20;;;;;;;9.66;100.00;100153.16;2106400;28;20231;-58
2023/01/19 01:16:33;;;;;;;16.63;6.90;;;;;;;9.55;100.00;100145.16;2106774;28;20181;-58
2023/01/19 01:17:34;;;;;;;12.70;6.73;;;;;;;9.56;100.00;100162.50;2106613;28;20192;-58
2023/01/19 01:18:35;;;;;;;15.93;6.93;;;;;;;9.44;100.00;100141.88;2106811;28;20246;-58
2023/01/19 01:19:39;;;;;;;15.23;6.77;;;;;;;9.19;100.00;100118.88;2104346;28;20191;-58
2023/01/19 01:20:39;;;;;;;13.93;6.50;;;;;;;9.50;100.00;100161.50;2106766;28;20657;-58
2023/01/19 01:21:40;;;;;;;13.53;7.27;;;;;;;9.55;100.00;100160.97;2105826;28;20812;-58
2023/01/19 01:22:46;;;;;;;16.60;6.40;;;;;;;9.11;100.00;100095.38;2098552;28;20724;-58
2023/01/19 01:23:46;;;;;;;14.87;6.33;;;;;;;9.61;100.00;100168.31;2098119;28;20289;-58
2023/01/19 01:24:47;;;;;;;15.03;6.63;;;;;;;9.58;100.00;100169.16;2096252;28;20434;-58
2023/01/19 01:25:47;;;;;;;13.60;6.27;;;;;;;9.62;100.00;100152.47;2097798;28;20615;-58
2023/01/19 01:26:48;;;;;;;16.97;7.43;;;;;;;9.62;100.00;100144.94;2106610;28;20189;-58
2023/01/19 01:27:49;;;;;;;15.43;7.73;;;;;;;9.09;100.00;100059.13;2104539;28;20200;-58
2023/01/19 01:28:49;;;;;;;14.87;7.33;;;;;;;9.60;100.00;100149.38;2100089;28;20198;-58
2023/01/19 01:29:50;;;;;;;12.50;7.50;;;;;;;9.62;100.00;100135.88;2106600;28;20514;-58
2023/01/19 01:30:54;;;;;;;12.70;7.23;;;;;;;9.67;100.00;100146.41;2106481;28;20189;-58
2023/01/19 01:31:55;;;;;;;12.70;6.07;;;;;;;9.39;100.00;100100.16;2099368;28;20186;-58
2023/01/19 01:32:55;;;;;;;10.97;6.80;;;;;;;9.46;100.00;100117.34;2103500;28;20490;-58
2023/01/19 01:33:56;;;;;;;12.33;6.90;;;;;;;9.69;100.00;100144.75;2102624;28;20202;-58
2023/01/19 01:34:56;;;;;;;14.83;7.40;;;;;;;9.69;100.00;100139.22;2099091;28;20674;-58
2023/01/19 01:35:56;;;;;;;13.70;6.73;;;;;;;9.66;100.00;100147.63;2097613;28;20250;-57
2023/01/19 01:36:57;;;;;;;11.87;6.17;;;;;;;9.58;100.00;100116.59;2097774;28;20172;-58
2023/01/19 01:37:57;;;;;;;15.93;6.67;;;;;;;9.56;100.00;100119.03;2106158;28;20673;-58
2023/01/19 01:38:59;;;;;;;15.30;6.67;;;;;;;9.61;100.00;100139.84;2106468;28;20196;-58
2023/01/19 01:39:59;;;;;;;13.47;6.70;;;;;;;9.54;100.00;100132.50;2106408;28;20670;-58
2023/01/19 01:40:59;;;;;;;15.00;7.27;;;;;;;9.04;100.00;100041.09;2103165;28;20831;-58
2023/01/19 01:42:00;;;;;;;15.20;6.87;;;;;;;9.61;100.00;100126.00;2098336;28;20240;-58
2023/01/19 01:43:01;;;;;;;14.47;6.63;;;;;;;9.56;100.00;100127.34;2104859;28;20692;-58
2023/01/19 01:44:23;;;;;;;11.53;6.50;;;;;;;9.52;100.00;100134.16;2106500;28;20185;-57
2023/01/19 01:45:27;;;;;;;17.17;6.57;;;;;;;9.52;100.00;100134.16;2106371;28;20198;-58
2023/01/19 01:46:30;;;;;;;11.80;5.87;;;;;;;9.53;100.00;100135.75;2106568;28;20453;-58
2023/01/19 01:47:36;;;;;;;14.37;6.60;;;;;;;9.42;100.00;100118.63;2106304;28;20801;-58
2023/01/19 01:48:39;;;;;;;15.67;7.40;;;;;;;9.53;100.00;100130.97;2099828;28;20951;-57
2023/01/19 01:49:39;;;;;;;16.40;6.87;;;;;;;9.45;100.00;100135.16;2098207;28;20870;-57
2023/01/19 01:52:14;;;;;;;13.27;6.60;;;;;;;9.10;100.00;100068.97;2105458;28;20177;-58
2023/01/19 01:53:15;;;;;;;16.17;6.93;;;;;;;9.47;100.00;100143.00;2100593;28;20937;-57
2023/01/19 01:54:29;;;;;;;14.63;7.33;;;;;;;9.50;100.00;100131.84;2101110;28;20641;-58
2023/01/19 01:55:31;;;;;;;16.80;7.80;;;;;;;9.09;100.00;100073.72;2106441;28;20656;-58
2023/01/19 01:56:36;;;;;;;14.63;7.57;;;;;;;9.48;100.00;100137.03;2106165;28;20939;-57
2023/01/19 01:57:40;;;;;;;13.32;7.05;;;;;;;9.50;100.00;100136.59;2106421;28;20949;-57
2023/01/19 01:58:41;;;;;;;16.25;7.22;;;;;;;9.49;100.00;100132.28;2105846;28;20209;-58
2023/01/19 01:59:46;;;;;;;17.03;7.50;;;;;;;9.38;100.00;100121.50;2106622;28;20239;-58
2023/01/19 02:03:34;;;;;;;16.05;8.75;;;;;;;9.33;100.00;100129.56;2106582;28;20165;-58
2023/01/19 02:04:35;;;;;;;20.53;9.07;;;;;;;9.31;100.00;100131.97;2104023;28;20204;-58
2023/01/19 02:05:36;;;;;;;15.93;9.77;;;;;;;9.24;100.00;100129.41;2103806;28;20262;-59
2023/01/19 02:13:38;;;;;;;16.00;7.95;;;;;;;9.09;100.00;100125.44;2097708;28;20173;-57
2023/01/19 02:14:39;;;;;;;18.85;8.52;;;;;;;8.96;100.00;100121.84;2105262;28;20258;-57
2023/01/19 02:15:39;;;;;;;13.00;6.80;;;;;;;9.02;100.00;100128.41;2106249;28;20261;-58
2023/01/19 02:16:40;;;;;;;20.73;7.47;;;;;;;9.03;100.00;100136.25;2102968;28;20263;-58
2023/01/19 02:17:42;;;;;;;15.98;7.40;;;;;;;8.39;100.00;100036.06;2097478;28;20177;-58
2023/01/19 02:18:44;;;;;;;17.90;8.17;;;;;;;8.98;100.00;100134.00;2098850;28;20172;-57
2023/01/19 02:19:45;;;;;;;13.63;7.57;;;;;;;9.02;100.00;100129.16;2106206;28;20423;-58
2023/01/19 02:21:14;;;;;;;18.83;8.20;;;;;;;9.03;100.00;100116.13;2106408;28;20178;-58
2023/01/19 02:22:22;;;;;;;14.63;6.20;;;;;;;9.00;100.00;100114.22;2098049;28;20209;-58
2023/01/19 02:23:43;;;;;;;15.47;6.20;;;;;;;8.95;100.00;100123.03;2100506;28;20193;-58
2023/01/19 02:24:44;;;;;;;12.63;6.53;;;;;;;8.92;100.00;100110.88;2106485;28;20895;-58
2023/01/19 02:25:46;;;;;;;13.77;6.80;;;;;;;8.64;100.00;100080.41;2106255;28;20789;-57
2023/01/19 02:26:47;;;;;;;14.57;6.75;;;;;;;8.55;100.00;100069.97;2106303;28;20179;-58
2023/01/19 02:27:49;;;;;;;14.43;6.70;;;;;;;8.89;100.00;100111.75;2105998;28;20264;-57
2023/01/19 02:28:57;;;;;;;13.07;6.60;;;;;;;8.87;100.00;100094.06;2098529;28;20504;-58
2023/01/19 02:30:02;;;;;;;13.98;6.90;;;;;;;8.92;100.00;100110.09;2097982;28;20164;-58
2023/01/19 02:31:03;;;;;;;12.60;6.70;;;;;;;8.01;100.00;99972.28;2104776;28;20209;-57
2023/01/19 02:32:04;;;;;;;14.10;7.07;;;;;;;8.61;100.00;100065.47;2106254;28;20467;-58
2023/01/19 02:33:06;;;;;;;17.15;7.10;;;;;;;8.92;100.00;100101.81;2106011;28;20647;-58
2023/01/19 02:34:09;;;;;;;15.43;6.75;;;;;;;8.91;100.00;100108.56;2106132;28;20190;-58
2023/01/19 02:35:11;;;;;;;13.55;6.93;;;;;;;8.42;100.00;100026.91;2106270;28;20190;-58
2023/01/19 02:36:15;;;;;;;9.60;6.20;;;;;;;8.43;100.00;100045.81;2106090;28;20267;-58
2023/01/19 02:37:17;;;;;;;14.52;6.70;;;;;;;8.88;100.00;100104.69;2106079;28;20268;-58
2023/01/19 02:38:20;;;;;;;13.00;6.07;;;;;;;8.90;100.00;100095.94;2106043;28;20562;-58
2023/01/19 02:39:44;;;;;;;13.83;6.77;;;;;;;8.88;100.00;100103.88;2106299;28;20820;-58
2023/01/19 02:40:46;;;;;;;10.05;6.50;;;;;;;8.89;100.00;100114.50;2101799;28;20404;-58
2023/01/19 02:41:54;;;;;;;15.10;6.57;;;;;;;8.90;100.00;100098.69;2105843;28;20251;-58
2023/01/19 02:42:59;;;;;;;13.93;6.80;;;;;;;8.84;100.00;100103.97;2106173;28;20404;-58
2023/01/19 02:44:00;;;;;;;16.40;6.83;;;;;;;8.69;100.00;100077.13;2106164;28;20829;-58
2023/01/19 02:45:05;;;;;;;11.17;6.70;;;;;;;8.57;100.00;100048.22;2106169;28;20475;-58
2023/01/19 02:46:06;;;;;;;11.87;6.93;;;;;;;8.83;100.00;100085.06;2105862;28;20932;-57
2023/01/19 02:47:06;;;;;;;12.27;6.30;;;;;;;8.77;100.00;100098.63;2106171;28;20426;-58
2023/01/19 02:48:07;;;;;;;13.93;6.63;;;;;;;8.76;100.00;100090.78;2106267;28;20178;-58
2023/01/19 02:49:07;;;;;;;13.80;6.47;;;;;;;8.83;100.00;100102.44;2106298;28;20573;-58
2023/01/19 02:50:48;;;;;;;12.90;7.07;;;;;;;8.80;100.00;100095.00;2103108;28;20208;-58
2023/01/19 02:51:49;;;;;;;13.25;6.25;;;;;;;8.78;100.00;100096.63;2097838;28;20690;-58
2023/01/19 02:52:52;;;;;;;12.30;6.30;;;;;;;8.77;100.00;100097.84;2104243;28;20574;-58
2023/01/19 02:54:30;;;;;;;13.10;6.27;;;;;;;8.77;100.00;100097.84;2105614;28;20361;-58
2023/01/19 02:55:31;;;;;;;15.68;6.40;;;;;;;8.64;100.00;100078.44;2105962;28;20936;-58
2023/01/19 02:56:53;;;;;;;12.60;6.23;;;;;;;8.75;100.00;100091.97;2106137;28;20185;-58
2023/01/19 02:58:19;;;;;;;14.40;6.70;;;;;;;8.66;100.00;100083.53;2106009;28;20460;-58
2023/01/19 02:59:41;;;;;;;10.90;6.50;;;;;;;8.74;100.00;100102.25;2105967;28;20168;-58
2023/01/19 03:01:15;;;;;;;12.55;6.90;;;;;;;8.69;100.00;100104.75;2100108;28;20179;-58
2023/01/19 03:02:43;;;;;;;12.15;6.15;;;;;;;8.63;100.00;100112.00;2100497;28;20188;-58
2023/01/19 03:03:53;;;;;;;10.93;6.53;;;;;;;8.56;100.00;100107.41;2096650;28;20199;-58
2023/01/19 03:05:20;;;;;;;12.67;7.77;;;;;;;8.48;100.00;100110.78;2098238;28;20613;-58
2023/01/19 03:06:41;;;;;;;15.13;7.53;;;;;;;8.40;100.00;100112.16;2105167;28;20441;-57
2023/01/19 03:07:49;;;;;;;13.63;7.97;;;;;;;8.37;100.00;100115.78;2097748;28;20170;-57
2023/01/19 03:08:59;;;;;;;16.75;7.47;;;;;;;8.36;100.00;100119.75;2100761;28;20292;-58
2023/01/19 03:10:30;;;;;;;10.73;6.68;;;;;;;8.35;100.00;100124.47;2106186;28;20165;-57
2023/01/19 03:11:37;;;;;;;15.82;8.48;;;;;;;8.23;100.00;100114.13;2106021;28;20265;-58
2023/01/19 03:13:01;;;;;;;14.35;8.73;;;;;;;7.70;100.00;100077.81;2106068;28;20277;-58
2023/01/19 03:14:09;;;;;;;16.35;8.75;;;;;;;7.95;100.00;100111.19;2096843;28;20195;-57
2023/01/19 03:15:37;;;;;;;14.75;7.93;;;;;;;7.91;100.00;100127.03;2098271;28;20206;-58
2023/01/19 03:16:49;;;;;;;13.38;7.85;;;;;;;7.84;100.00;100119.66;2105675;28;20175;-58
2023/01/19 03:17:52;;;;;;;16.42;7.55;;;;;;;7.75;100.00;100107.66;2097815;28;20162;-58
2023/01/19 03:18:57;;;;;;;13.30;7.65;;;;;;;7.59;100.00;100083.53;2097591;28;20284;-57
2023/01/19 03:19:57;;;;;;;12.90;7.35;;;;;;;7.87;100.00;100124.34;2091605;28;20272;-57
2023/01/19 03:21:04;;;;;;;15.47;8.03;;;;;;;7.58;100.00;100081.22;2092843;28;20179;-58
2023/01/19 03:22:12;;;;;;;19.00;8.45;;;;;;;7.81;100.00;100131.56;2097786;28;20244;-58
2023/01/19 03:23:15;;;;;;;15.35;7.63;;;;;;;7.53;100.00;100109.28;2106053;28;20650;-58
2023/01/19 03:24:20;;;;;;;12.73;7.50;;;;;;;7.23;100.00;100043.34;2103419;28;20181;-58
2023/01/19 03:25:23;;;;;;;13.93;6.80;;;;;;;7.56;100.00;100087.16;2097575;28;20203;-58
2023/01/19 03:26:29;;;;;;;25.23;9.35;;;;;;;7.83;100.00;100133.88;2097174;28;20569;-57
2023/01/19 03:27:40;;;;;;;18.20;9.32;;;;;;;7.91;100.00;100132.53;2097226;28;20267;-58
2023/01/19 03:28:42;;;;;;;20.73;9.05;;;;;;;7.89;100.00;100127.44;2089512;28;20169;-58
2023/01/19 03:29:49;;;;;;;16.80;8.40;;;;;;;7.86;100.00;100109.00;2088986;28;20565;-58
2023/01/19 03:30:56;;;;;;;16.30;8.88;;;;;;;7.91;100.00;100113.22;2096914;28;20477;-58
2023/01/19 03:32:00;;;;;;;22.30;8.30;;;;;;;7.92;100.00;100118.31;2089892;28;20195;-58
2023/01/19 03:33:10;;;;;;;18.98;7.95;;;;;;;7.92;100.00;100115.56;2090437;28;20178;-58
2023/01/19 03:34:13;;;;;;;20.23;9.25;;;;;;;7.68;100.00;100067.22;2090878;28;20253;-58
2023/01/19 03:35:17;;;;;;;16.15;8.52;;;;;;;7.92;100.00;100098.22;2090755;28;20187;-57
2023/01/19 03:36:31;;;;;;;15.50;7.90;;;;;;;7.76;100.00;100084.38;2095574;28;20236;-58
2023/01/19 03:37:36;;;;;;;13.38;7.90;;;;;;;7.85;100.00;100112.19;2099162;28;20281;-58
2023/01/19 03:38:40;;;;;;;21.52;8.52;;;;;;;7.89;100.00;100110.88;2099285;28;20165;-58
2023/01/19 03:39:41;;;;;;;19.63;8.43;;;;;;;7.95;100.00;100106.41;2095396;28;20238;-58
2023/01/19 03:40:44;;;;;;;18.07;7.63;;;;;;;8.01;100.00;100114.97;2095560;28;20187;-57
2023/01/19 03:41:49;;;;;;;19.33;8.40;;;;;;;7.99;100.00;100117.41;2099159;28;20260;-58
2023/01/19 03:42:50;;;;;;;14.82;9.27;;;;;;;7.47;100.00;100048.34;2089519;28;20237;-58
2023/01/19 03:43:52;;;;;;;16.67;7.77;;;;;;;7.91;100.00;100113.22;2082121;28;20215;-57
2023/01/19 03:44:55;;;;;;;14.30;7.80;;;;;;;7.95;100.00;100106.41;2098083;28;20784;-58
2023/01/19 03:45:56;;;;;;;13.65;7.60;;;;;;;7.34;100.00;100014.34;2107523;28;20167;-58
2023/01/19 03:46:58;;;;;;;15.00;8.05;;;;;;;7.95;100.00;100100.91;2102288;28;20211;-58
2023/01/19 03:47:58;;;;;;;14.77;7.55;;;;;;;8.02;100.00;100099.97;2099035;28;20660;-58
2023/01/19 03:48:59;;;;;;;16.50;8.40;;;;;;;7.72;100.00;100067.13;2099137;28;20253;-58
2023/01/19 03:50:03;;;;;;;17.67;8.90;;;;;;;8.00;100.00;100102.41;2104242;28;20585;-58
2023/01/19 03:51:06;;;;;;;21.27;9.30;;;;;;;8.01;100.00;100104.72;2107516;28;20183;-57
2023/01/19 03:52:06;;;;;;;17.80;8.52;;;;;;;8.04;100.00;100100.34;2107497;28;20167;-57
2023/01/19 03:53:12;;;;;;;12.83;7.40;;;;;;;8.01;100.00;100099.22;2100320;28;20194;-57
2023/01/19 03:54:13;;;;;;;15.10;6.93;;;;;;;7.81;100.00;100070.88;2099191;28;20260;-57
2023/01/19 03:55:13;;;;;;;14.10;7.40;;;;;;;8.08;100.00;100101.03;2099189;28;20240;-58
2023/01/19 03:56:20;;;;;;;19.17;8.67;;;;;;;8.04;100.00;100114.91;2098902;28;20260;-58
2023/01/19 03:57:21;;;;;;;16.20;7.78;;;;;;;8.04;100.00;100108.63;2096664;28;20664;-58
2023/01/19 03:58:21;;;;;;;19.60;8.43;;;;;;;8.06;100.00;100108.97;2090683;28;20696;-58
2023/01/19 03:59:21;;;;;;;22.97;8.40;;;;;;;8.07;100.00;100103.03;2107050;28;20178;-57
2023/01/19 04:00:23;;;;;;;14.13;7.23;;;;;;;8.08;100.00;100096.28;2107523;28;20175;-58
2023/01/19 04:01:24;;;;;;;13.25;7.45;;;;;;;8.09;100.00;100108.88;2093527;28;20192;-57
2023/01/19 04:02:24;;;;;;;18.83;7.88;;;;;;;8.08;100.00;100104.56;2095893;28;20194;-58
2023/01/19 04:03:25;;;;;;;15.30;7.40;;;;;;;8.06;100.00;100106.19;2098511;28;20182;-57
2023/01/19 04:04:25;;;;;;;18.67;8.33;;;;;;;8.08;100.00;100109.28;2098920;28;20200;-58
2023/01/19 04:05:26;;;;;;;17.63;8.17;;;;;;;8.11;100.00;100100.19;2097439;28;20191;-58
2023/01/19 04:06:27;;;;;;;18.87;8.17;;;;;;;7.67;100.00;100029.00;2095827;28;20179;-58
2023/01/19 04:07:27;;;;;;;15.50;7.30;;;;;;;8.12;100.00;100099.75;2098841;28;20720;-57
2023/01/19 04:08:27;;;;;;;15.67;6.97;;;;;;;8.09;100.00;100108.88;2092544;28;20184;-58
2023/01/19 04:09:28;;;;;;;19.73;7.40;;;;;;;7.99;100.00;100100.84;2090701;28;20181;-57
2023/01/19 04:10:28;;;;;;;16.27;7.67;;;;;;;8.00;100.00;100097.63;2090731;28;20191;-57
2023/01/19 04:11:29;;;;;;;18.03;8.80;;;;;;;7.89;100.00;100107.38;2090712;28;20180;-57
2023/01/19 04:12:29;;;;;;;16.70;8.20;;;;;;;7.62;100.00;100077.19;2097099;28;20186;-58
2023/01/19 04:13:30;;;;;;;17.03;8.00;;;;;;;7.85;100.00;100112.94;2098874;28;20230;-58
2023/01/19 04:14:30;;;;;;;15.20;7.90;;;;;;;7.85;100.00;100107.41;2099036;28;20192;-57
2023/01/19 04:15:31;;;;;;;17.30;7.67;;;;;;;7.86;100.00;100102.69;2090814;28;20215;-58
2023/01/19 04:16:31;;;;;;;13.33;7.23;;;;;;;7.40;100.00;100031.16;2090437;28;20542;-57
2023/01/19 04:17:32;;;;;;;15.23;7.90;;;;;;;7.65;100.00;100095.66;2098988;28;20188;-58
2023/01/19 04:18:33;;;;;;;17.90;8.23;;;;;;;7.65;100.00;100097.63;2106749;28;20704;-57
2023/01/19 04:19:33;;;;;;;13.80;7.25;;;;;;;7.78;100.00;100121.38;2107175;28;20633;-58
2023/01/19 04:20:34;;;;;;;13.90;7.57;;;;;;;7.61;100.00;100072.09;2098104;28;20174;-58
2023/01/19 04:21:34;;;;;;;22.23;8.20;;;;;;;7.81;100.00;100103.19;2098496;28;20202;-58
2023/01/19 04:22:37;;;;;;;19.50;7.80;;;;;;;7.75;100.00;100108.41;2115806;28;20202;-58
2023/01/19 04:23:38;;;;;;;15.98;8.05;;;;;;;7.77;100.00;100119.81;2098819;28;20180;-57
2023/01/19 04:24:38;;;;;;;22.70;8.60;;;;;;;7.79;100.00;100119.41;2098910;28;20172;-58
2023/01/19 04:25:39;;;;;;;19.27;7.73;;;;;;;7.80;100.00;100124.47;2098880;28;20182;-58
2023/01/19 04:26:39;;;;;;;17.43;8.23;;;;;;;7.82;100.00;100118.53;2106908;28;20668;-58
2023/01/19 04:27:40;;;;;;;14.97;8.23;;;;;;;7.79;100.00;100114.66;2104533;28;20186;-58
2023/01/19 04:28:41;;;;;;;16.37;9.13;;;;;;;7.38;100.00;100053.66;2098543;28;20551;-57
2023/01/19 04:29:42;;;;;;;16.40;8.40;;;;;;;7.72;100.00;100114.78;2098769;28;20278;-57
2023/01/19 04:30:42;;;;;;;16.10;8.90;;;;;;;7.67;100.00;100098.75;2103168;28;20202;-58
2023/01/19 04:31:43;;;;;;;22.43;8.87;;;;;;;7.81;100.00;100106.75;2107039;28;20671;-57
2023/01/19 04:32:43;;;;;;;20.93;8.00;;;;;;;7.83;100.00;100114.56;2107128;28;20219;-57
2023/01/19 04:33:44;;;;;;;16.67;7.70;;;;;;;7.41;100.00;100050.03;2103111;28;20187;-57
2023/01/19 04:34:44;;;;;;;16.33;9.13;;;;;;;7.82;100.00;100115.78;2099081;28;20218;-58
2023/01/19 04:35:46;;;;;;;15.67;9.20;;;;;;;7.79;100.00;100128.44;2105296;28;20175;-58
2023/01/19 04:36:49;;;;;;;19.17;9.27;;;;;;;7.83;100.00;100134.66;2098637;28;20578;-57
2023/01/19 04:37:50;;;;;;;15.60;8.63;;;;;;;7.84;100.00;100127.94;2098401;28;20176;-57
2023/01/19 04:38:50;;;;;;;17.17;9.07;;;;;;;7.83;100.00;100120.09;2098798;28;20214;-58
2023/01/19 04:39:51;;;;;;;17.33;9.10;;;;;;;7.77;100.00;100119.81;2112491;28;20190;-58
2023/01/19 04:40:53;;;;;;;16.00;8.90;;;;;;;7.70;100.00;100117.19;2114867;28;20175;-58
2023/01/19 04:41:55;;;;;;;23.33;9.82;;;;;;;7.70;100.00;100117.19;2106656;28;20191;-58
2023/01/19 04:42:55;;;;;;;24.13;9.50;;;;;;;7.64;100.00;100118.13;2104735;28;20245;-58
2023/01/19 04:43:55;;;;;;;17.03;10.03;;;;;;;7.65;100.00;100114.16;2099703;28;20767;-57
2023/01/19 04:44:56;;;;;;;18.17;11.03;;;;;;;7.68;100.00;100110.56;2107208;28;20553;-57
2023/01/19 04:45:56;;;;;;;24.17;10.37;;;;;;;7.09;100.00;100014.09;2106924;28;20266;-58
2023/01/19 04:46:57;;;;;;;17.00;11.80;;;;;;;7.70;100.00;100111.66;2099905;28;20246;-58
2023/01/19 04:47:57;;;;;;;27.43;12.20;;;;;;;7.70;100.00;100105.41;2098923;28;20681;-57
2023/01/19 04:48:57;;;;;;;19.33;11.00;;;;;;;6.93;100.00;99991.19;2106902;28;20201;-58
2023/01/19 04:49:58;;;;;;;22.50;10.67;;;;;;;7.76;100.00;100106.44;2103845;28;20200;-57
2023/01/19 04:50:58;;;;;;;32.20;10.43;;;;;;;7.78;100.00;100109.53;2098611;28;20182;-58
2023/01/19 04:52:00;;;;;;;32.80;12.33;;;;;;;7.62;100.00;100079.16;2098628;28;20233;-58
2023/01/19 04:53:00;;;;;;;23.80;15.50;;;;;;;7.55;100.00;100093.09;2099058;28;20184;-58
2023/01/19 04:54:02;;;;;;;25.13;17.97;;;;;;;7.60;100.00;100071.34;2106891;28;20181;-58
2023/01/19 04:55:05;;;;;;;25.60;17.17;;;;;;;7.53;100.00;100081.72;2101369;28;20203;-58
2023/01/19 04:56:05;;;;;;;29.02;17.05;;;;;;;6.48;100.00;99918.47;2103001;28;20277;-58
2023/01/19 04:57:06;;;;;;;24.30;16.70;;;;;;;7.68;100.00;100099.53;2106507;28;20253;-58
2023/01/19 04:58:06;;;;;;;22.37;14.93;;;;;;;7.73;100.00;100101.78;2100927;28;20215;-63
2023/01/19 04:59:07;;;;;;;24.50;15.00;;;;;;;7.71;100.00;100109.69;2096331;28;20265;-63
2023/01/19 05:00:08;;;;;;;22.83;13.47;;;;;;;7.71;100.00;100109.69;2104247;28;20198;-63
2023/01/19 05:01:09;;;;;;;20.23;13.88;;;;;;;7.72;100.00;100097.47;2105831;28;20530;-63
2023/01/19 05:02:10;;;;;;;22.27;13.20;;;;;;;7.75;100.00;100107.66;2101487;28;20306;-64
2023/01/19 05:03:10;;;;;;;22.40;13.30;;;;;;;7.77;100.00;100091.44;2103646;28;20197;-60